createdAt,value
2023-04-08T00:03:03.667Z,6.90
2023-04-08T00:08:06.751Z,7.00
2023-04-08T00:13:09.735Z,6.30
2023-04-08T00:18:15.488Z,6.90
2023-04-08T00:23:18.068Z,7.40
2023-04-08T00:28:21.080Z,8.10
2023-04-08T00:33:25.745Z,9.70
2023-04-08T00:38:28.291Z,12.50
2023-04-08T00:43:31.191Z,9.40
2023-04-08T00:48:34.161Z,6.40
2023-04-08T00:53:36.882Z,5.70
2023-04-08T00:58:40.163Z,6.40
2023-04-08T01:03:57.038Z,6.70
2023-04-08T01:09:01.220Z,6.10
2023-04-08T01:14:10.034Z,7.30
2023-04-08T01:19:29.304Z,8.20
2023-04-08T01:24:36.584Z,8.70
2023-04-08T01:29:39.640Z,6.70
2023-04-08T01:34:44.070Z,6.40
2023-04-08T01:39:48.525Z,5.30
2023-04-08T01:44:55.425Z,5.80
2023-04-08T01:49:59.826Z,6.00
2023-04-08T01:55:02.832Z,6.30
2023-04-08T02:00:08.916Z,7.00
2023-04-08T02:05:11.436Z,6.70
2023-04-08T02:10:13.994Z,6.20
2023-04-08T02:15:17.015Z,6.40
2023-04-08T02:20:26.263Z,6.50
2023-04-08T02:25:30.380Z,6.80
2023-04-08T02:30:35.625Z,6.50
2023-04-08T02:35:40.741Z,6.30
2023-04-08T02:40:43.407Z,6.40
2023-04-08T02:45:46.407Z,6.10
2023-04-08T02:50:49.096Z,6.30
2023-04-08T02:55:51.828Z,6.40
2023-04-08T03:00:54.920Z,6.20
2023-04-08T03:05:58.319Z,5.80
2023-04-08T03:11:00.903Z,5.70
2023-04-08T03:16:03.556Z,6.60
2023-04-08T03:21:06.131Z,6.40
2023-04-08T03:26:08.992Z,6.40
2023-04-08T03:31:11.533Z,6.40
2023-04-08T03:36:14.036Z,5.80
2023-04-08T03:41:16.612Z,6.60
2023-04-08T03:46:19.277Z,7.20
2023-04-08T03:51:21.791Z,6.80
2023-04-08T03:56:25.497Z,6.50
2023-04-08T04:01:28.933Z,6.90
2023-04-08T04:06:31.802Z,6.10
2023-04-08T04:11:35.573Z,6.50
2023-04-08T04:16:38.208Z,7.30
2023-04-08T04:21:40.756Z,6.70
2023-04-08T04:26:43.294Z,7.00
2023-04-08T04:31:46.218Z,6.40
2023-04-08T04:36:48.918Z,6.70
2023-04-08T04:41:51.732Z,7.40
2023-04-08T04:46:54.407Z,7.70
2023-04-08T04:51:57.228Z,6.90
2023-04-08T04:56:59.805Z,7.50
2023-04-08T05:02:03.339Z,7.10
2023-04-08T05:07:05.965Z,7.10
2023-04-08T05:12:08.891Z,6.40
2023-04-08T05:17:11.452Z,7.00
2023-04-08T05:22:14.018Z,7.30
2023-04-08T05:27:16.648Z,7.30
2023-04-08T05:32:19.207Z,7.60
2023-04-08T05:37:21.788Z,7.30
2023-04-08T05:42:24.301Z,7.10
2023-04-08T05:47:26.973Z,7.00
2023-04-08T05:52:29.677Z,7.90
2023-04-08T05:57:32.174Z,7.50
2023-04-08T06:02:38.362Z,12.00
2023-04-08T06:07:41.243Z,7.30
2023-04-08T06:12:43.883Z,5.80
2023-04-08T06:17:46.522Z,5.10
2023-04-08T06:22:49.066Z,6.00
2023-04-08T06:27:52.076Z,5.70
2023-04-08T06:32:54.752Z,5.60
2023-04-08T06:37:57.324Z,5.50
2023-04-08T06:42:59.864Z,4.90
2023-04-08T06:48:02.581Z,4.60
2023-04-08T06:53:05.200Z,4.30
2023-04-08T06:58:07.859Z,4.40
2023-04-08T07:03:11.840Z,4.90
2023-04-08T07:08:14.673Z,4.70
2023-04-08T07:13:17.479Z,4.70
2023-04-08T07:18:21.671Z,5.00
2023-04-08T07:23:24.348Z,4.80
2023-04-08T07:28:26.894Z,4.90
2023-04-08T07:33:29.713Z,4.90
2023-04-08T07:38:32.401Z,5.30
2023-04-08T07:43:37.169Z,5.10
2023-04-08T07:48:40.298Z,5.30
2023-04-08T07:53:42.993Z,5.30
2023-04-08T07:58:47.207Z,5.60
2023-04-08T08:03:52.195Z,5.60
2023-04-08T08:08:55.493Z,5.00
2023-04-08T08:13:58.084Z,5.70
2023-04-08T08:19:01.363Z,5.80
2023-04-08T08:24:03.960Z,6.10
2023-04-08T08:29:08.861Z,6.00
2023-04-08T08:34:11.733Z,5.80
2023-04-08T08:39:14.382Z,5.70
2023-04-08T08:44:25.358Z,5.90
2023-04-08T08:49:28.240Z,5.80
2023-04-08T08:54:31.541Z,6.70
2023-04-08T08:59:34.961Z,6.50
2023-04-08T09:04:37.709Z,6.40
2023-04-08T09:09:57.374Z,6.20
2023-04-08T09:15:18.091Z,6.10
2023-04-08T09:20:20.641Z,6.90
2023-04-08T09:25:25.387Z,7.40
2023-04-08T09:30:28.518Z,6.50
2023-04-08T09:35:31.649Z,6.40
2023-04-08T09:40:37.802Z,7.50
2023-04-08T09:45:42.911Z,7.30
2023-04-08T09:50:50.262Z,7.40
2023-04-08T09:55:57.597Z,6.90
2023-04-08T10:01:00.789Z,6.90
2023-04-08T10:06:04.446Z,6.30
2023-04-08T10:11:07.248Z,7.70
2023-04-08T10:16:27.214Z,7.20
2023-04-08T10:21:43.171Z,7.70
2023-04-08T10:26:46.008Z,7.30
2023-04-08T10:31:50.618Z,7.40
2023-04-08T10:36:55.661Z,7.00
2023-04-08T10:42:02.454Z,7.90
2023-04-08T10:47:05.036Z,8.20
2023-04-08T10:52:09.166Z,7.70
2023-04-08T10:57:11.771Z,5.30
2023-04-08T11:02:16.230Z,7.20
2023-04-08T11:07:21.168Z,7.90
2023-04-08T11:12:23.815Z,7.70
2023-04-08T11:17:27.068Z,6.50
2023-04-08T11:22:31.006Z,7.90
2023-04-08T11:27:35.800Z,7.60
2023-04-08T11:32:39.920Z,7.70
2023-04-08T11:37:42.730Z,7.60
2023-04-08T11:42:47.189Z,7.70
2023-04-08T11:47:50.063Z,7.90
2023-04-08T11:52:53.483Z,7.90
2023-04-08T11:57:57.503Z,7.70
2023-04-08T12:03:00.553Z,7.70
2023-04-08T12:08:03.556Z,7.20
2023-04-08T12:13:06.656Z,7.20
2023-04-08T12:18:09.240Z,7.10
2023-04-08T12:23:11.949Z,6.20
2023-04-08T12:28:14.936Z,4.80
2023-04-08T12:33:17.460Z,4.60
2023-04-08T12:38:20.460Z,5.90
2023-04-08T12:43:23.671Z,5.60
2023-04-08T12:48:26.361Z,5.70
2023-04-08T12:53:28.959Z,4.50
2023-04-08T12:58:31.733Z,4.20
2023-04-08T13:03:36.195Z,4.10
2023-04-08T13:08:39.321Z,3.00
2023-04-08T13:13:41.924Z,3.30
2023-04-08T13:18:44.543Z,2.50
2023-04-08T13:23:47.111Z,2.40
2023-04-08T13:28:57.350Z,3.30
2023-04-08T13:34:01.165Z,3.40
2023-04-08T13:39:03.835Z,3.40
2023-04-08T13:44:07.058Z,3.80
2023-04-08T13:49:09.629Z,3.40
2023-04-08T13:54:12.249Z,3.60
2023-04-08T13:59:14.824Z,4.10
2023-04-08T14:04:18.454Z,4.10
2023-04-08T14:09:24.271Z,4.10
2023-04-08T14:14:28.094Z,3.80
2023-04-08T14:19:30.769Z,3.60
2023-04-08T14:24:34.385Z,4.30
2023-04-08T14:29:37.023Z,3.80
2023-04-08T14:34:39.540Z,3.60
2023-04-08T14:39:42.101Z,3.70
2023-04-08T14:44:44.730Z,3.90
2023-04-08T14:49:48.887Z,3.90
2023-04-08T14:54:52.523Z,3.80
2023-04-08T14:59:56.025Z,3.80
2023-04-08T15:04:58.594Z,3.70
2023-04-08T15:10:01.196Z,4.40
2023-04-08T15:15:04.693Z,4.40
2023-04-08T15:20:07.946Z,4.80
2023-04-08T15:25:10.603Z,4.00
2023-04-08T15:30:13.236Z,4.30
2023-04-08T15:35:16.252Z,4.30
2023-04-08T15:40:21.482Z,4.30
2023-04-08T15:45:24.050Z,4.60
2023-04-08T15:50:30.014Z,3.90
2023-04-08T15:55:41.215Z,4.80
2023-04-08T16:00:43.865Z,3.90
2023-04-08T16:05:46.411Z,3.70
2023-04-08T16:10:55.212Z,3.90
2023-04-08T16:16:05.480Z,3.90
2023-04-08T16:21:08.543Z,3.60
2023-04-08T16:26:11.157Z,3.50
2023-04-08T16:31:13.899Z,4.70
2023-04-08T16:36:17.117Z,3.50
2023-04-08T16:41:19.802Z,3.00
2023-04-08T16:46:22.955Z,3.40
2023-04-08T16:51:26.647Z,3.40
2023-04-08T16:56:29.344Z,3.50
2023-04-08T17:01:31.944Z,4.00
2023-04-08T17:06:35.720Z,4.10
2023-04-08T17:11:38.673Z,3.90
2023-04-08T17:16:41.422Z,3.90
2023-04-08T17:21:44.084Z,4.90
2023-04-08T17:26:47.659Z,4.70
2023-04-08T17:31:50.568Z,5.10
2023-04-08T17:36:54.797Z,5.40
2023-04-08T17:41:58.255Z,6.40
2023-04-08T17:47:02.027Z,6.30
2023-04-08T17:52:05.985Z,6.90
2023-04-08T17:57:08.609Z,6.40
2023-04-08T18:02:11.291Z,5.40
2023-04-08T18:07:14.174Z,4.20
2023-04-08T18:12:17.735Z,4.00
2023-04-08T18:17:21.651Z,4.20
2023-04-08T18:22:24.362Z,4.20
2023-04-08T18:27:27.013Z,4.30
2023-04-08T18:32:29.790Z,5.20
2023-04-08T18:37:32.547Z,5.10
2023-04-08T18:42:35.457Z,5.20
2023-04-08T18:47:38.090Z,5.40
2023-04-08T18:52:41.052Z,5.40
2023-04-08T18:57:45.034Z,5.60
2023-04-08T19:02:47.683Z,5.70
2023-04-08T19:07:53.022Z,6.10
2023-04-08T19:12:56.142Z,6.30
2023-04-08T19:18:00.660Z,7.20
2023-04-08T19:23:03.826Z,8.70
2023-04-08T19:28:08.422Z,10.10
2023-04-08T19:33:11.440Z,9.90
2023-04-08T19:38:14.317Z,10.60
2023-04-08T19:43:17.657Z,9.70
2023-04-08T19:48:22.676Z,10.10
2023-04-08T19:53:27.269Z,10.30
2023-04-08T19:58:31.958Z,9.90
2023-04-08T20:03:34.742Z,9.50
2023-04-08T20:08:37.484Z,10.70
2023-04-08T20:13:43.572Z,12.20
2023-04-08T20:18:47.127Z,11.30
2023-04-08T20:23:49.685Z,11.00
2023-04-08T20:28:52.521Z,9.90
2023-04-08T20:33:55.422Z,9.40
2023-04-08T20:39:00.116Z,9.50
2023-04-08T20:44:06.070Z,9.20
2023-04-08T20:49:08.801Z,8.90
2023-04-08T20:54:11.674Z,8.70
2023-04-08T20:59:16.080Z,9.50
2023-04-08T21:04:19.238Z,8.60
2023-04-08T21:09:21.781Z,8.50
2023-04-08T21:14:24.310Z,8.70
2023-04-08T21:19:26.836Z,8.40
2023-04-08T21:24:30.559Z,9.00
2023-04-08T21:29:33.104Z,8.80
2023-04-08T21:34:36.498Z,8.60
2023-04-08T21:39:39.071Z,8.80
2023-04-08T21:44:41.892Z,9.00
2023-04-08T21:49:45.298Z,9.30
2023-04-08T21:54:51.578Z,9.20
2023-04-08T21:59:54.294Z,9.70
2023-04-08T22:04:59.282Z,10.30
2023-04-08T22:10:02.201Z,11.00
2023-04-08T22:15:05.633Z,10.90
2023-04-08T22:20:08.837Z,10.40
2023-04-08T22:25:11.465Z,10.70
2023-04-08T22:30:15.232Z,11.10
2023-04-08T22:35:17.824Z,11.20
2023-04-08T22:40:20.725Z,10.00
2023-04-08T22:45:23.819Z,10.40
2023-04-08T22:50:26.552Z,8.70
2023-04-08T22:55:30.121Z,9.50
2023-04-08T23:00:32.717Z,9.60
2023-04-08T23:05:35.287Z,11.10
2023-04-08T23:10:37.830Z,11.60
2023-04-08T23:15:40.690Z,10.70
2023-04-08T23:20:54.123Z,10.80
2023-04-08T23:25:56.662Z,10.30
2023-04-08T23:30:59.238Z,9.90
2023-04-08T23:36:09.955Z,10.20
2023-04-08T23:41:12.618Z,10.50
2023-04-08T23:46:15.394Z,10.20
2023-04-08T23:51:18.077Z,9.80
2023-04-08T23:56:20.635Z,10.80
